This is the latest recevied weather packets stored in our database for station/object KD8JAM. If no packets are shown the sender has not sent any weather packets the latest 1 day(s).
| Time | Temp. | Humidity | Pressure | Rain* | Wind** | Luminosity | Snow |
|---|---|---|---|---|---|---|---|
| 1778107695 | 3.33° C | 73% | 1013.5 hPa | 0 mm | - | 146 W/m² | - |
| 1778106784 | 2.78° C | 75% | 1013.8 hPa | 0 mm | - | 172 W/m² | - |
| 1778103751 | 3.33° C | 75% | 1013.2 hPa | 0 mm | - | 218 W/m² | - |
| 1778102234 | 3.33° C | 76% | 1013.3 hPa | 0 mm | - | 269 W/m² | - |
| 1778100111 | 2.78° C | 76% | 1013.4 hPa | 0 mm | - | 321 W/m² | - |
| 1778099506 | 2.78° C | 77% | 1013.5 hPa | 0 mm | - | 311 W/m² | - |
| 1778099204 | 2.78° C | 76% | 1013.7 hPa | 0 mm | - | 302 W/m² | - |
| 1778097990 | 3.33° C | 79% | 1013.8 hPa | 0 mm | - | 313 W/m² | - |
| 1778097687 | 2.78° C | 78% | 1013.7 hPa | 0 mm | - | 347 W/m² | - |
| 1778097080 | 2.78° C | 79% | 1013.5 hPa | 0 mm | - | 452 W/m² | - |
| 1778095261 | 2.78° C | 78% | 1013.8 hPa | 0 mm | - | 373 W/m² | - |
| 1778094048 | 4.44° C | 70% | 1013.7 hPa | 0 mm | - | 647 W/m² | - |
| 1778092532 | 3.33° C | 74% | 1013.4 hPa | 0 mm | - | 720 W/m² | - |
| 1778091018 | 3.89° C | 73% | 1013.3 hPa | 0 mm | - | 512 W/m² | - |
| 1778090411 | 3.89° C | 71% | 1013.3 hPa | 0 mm | - | 684 W/m² | - |
| 1778090108 | 3.89° C | 74% | 1013.5 hPa | 0 mm | - | 754 W/m² | - |
| 1778087072 | 4.44° C | 76% | 1013.5 hPa | 0 mm | - | 790 W/m² | - |
| 1778086158 | 3.89° C | 75% | 1013.7 hPa | 0 mm | - | 311 W/m² | - |
| 1778085855 | 3.33° C | 76% | 1013.6 hPa | 0 mm | - | 374 W/m² | - |
| 1778085554 | 3.33° C | 75% | 1013.4 hPa | 0 mm | - | 614 W/m² | - |
| 1778085248 | 3.89° C | 75% | 1013.5 hPa | 0 mm | - | 471 W/m² | - |
| 1778084338 | 4.44° C | 72% | 1013.4 hPa | 0 mm | - | 675 W/m² | - |
| 1778080789 | 2.22° C | 85% | 1013.4 hPa | 0 mm | - | 329 W/m² | - |
| 1778080184 | 2.78° C | 83% | 1013.3 hPa | 0 mm | - | 368 W/m² | - |
| 1778079577 | 3.33° C | 81% | 1013.5 hPa | 0 mm | - | 556 W/m² | - |
* Rain latest hour (hover to see other rain measurements)
** Current wind speed in m/s (hover to see current wind gust speed)